Main page
METAR-TAF:

METAR-TAF

Airports :

Shannon Airport

Shannon, Ireland

latitude: 52-42N, longitude: 008-55W, elevation: 14 m

Current weather observation

The report was made 26 minutes ago, at 06:30 UTC
Wind 4 kt from the West
Temperature 10°C
Humidity 82%
Pressure 1019 hPa
Visibility 10 km or more
Few clouds at a height of 2500 ft
Broken clouds at a height of 4400 ft

METAR: EINN 240630Z 27004KT 9999 FEW025 BKN044 10/07 Q1019 NOSIG

Time: 07:56 (06:56 UTC)

Forecast

The report was made 1 hour and 56 minutes ago, at 05:00 UTC
Forecast valid from 24 at 06 UTC to 25 at 06 UTC
Wind 3 kt from variable directions
Visibility 10 km or more
Few clouds at a height of 4000 ft
Becoming
from 24 at 23 UTC to 25 at 01 UTC
Wind 10 kt from the South/Southeast

TAF: EINN 240500Z 2406/2506 VRB03KT 9999 FEW040 BECMG 2423/2501 15010KT

Weather observations and forecasts of more than 4000 airports (METAR and TAF reports).

The available stations are represented by yellow and red dots on the map.

Hover mouse over dot to see the name of the station.

Then click to see weather observations and forecasts.

To change the map : click on the green buttons with a black cross to zoom in, on the green button with a dash to zoom out, or on the green arrows for adjacent maps.


METAR-TAF: